createdAt,value
2022-12-04T00:00:15.471Z,27.80
2022-12-04T00:02:42.913Z,36.20
2022-12-04T00:05:10.562Z,27.10
2022-12-04T00:07:37.932Z,29.25
2022-12-04T00:10:05.245Z,28.55
2022-12-04T00:12:32.639Z,26.65
2022-12-04T00:17:50.064Z,25.00
2022-12-04T00:20:17.114Z,25.13
2022-12-04T00:22:44.473Z,31.13
2022-12-04T00:25:11.854Z,30.42
2022-12-04T00:27:39.200Z,29.20
2022-12-04T00:30:06.817Z,31.48
2022-12-04T00:32:34.392Z,31.20
2022-12-04T00:35:01.771Z,24.58
2022-12-04T00:37:29.115Z,23.92
2022-12-04T00:39:56.671Z,28.85
2022-12-04T00:42:24.285Z,29.73
2022-12-04T00:44:51.561Z,27.77
2022-12-04T00:47:18.509Z,28.27
2022-12-04T00:49:45.803Z,25.00
2022-12-04T00:52:13.210Z,23.67
2022-12-04T00:54:40.475Z,28.25
2022-12-04T00:57:07.816Z,30.65
2022-12-04T00:59:35.100Z,25.15
2022-12-04T01:02:02.421Z,23.90
2022-12-04T01:04:29.773Z,30.00
2022-12-04T01:07:01.547Z,26.60
2022-12-04T01:09:33.003Z,27.98
2022-12-04T01:12:00.538Z,23.52
2022-12-04T01:14:28.088Z,29.98
2022-12-04T01:16:55.465Z,24.88
2022-12-04T01:19:23.226Z,25.90
2022-12-04T01:21:50.672Z,26.05
2022-12-04T01:24:17.974Z,25.30
2022-12-04T01:26:45.139Z,24.83
2022-12-04T01:29:12.434Z,26.80
2022-12-04T01:31:39.959Z,30.50
2022-12-04T01:34:07.275Z,30.30
2022-12-04T01:36:34.605Z,26.27
2022-12-04T01:39:02.129Z,31.63
2022-12-04T01:41:32.106Z,28.95
2022-12-04T01:44:24.209Z,29.80
2022-12-04T01:46:56.188Z,22.30
2022-12-04T01:49:33.763Z,27.80
2022-12-04T01:52:17.803Z,23.98
2022-12-04T01:54:48.837Z,26.90
2022-12-04T01:57:19.214Z,28.90
2022-12-04T02:02:50.612Z,26.73
2022-12-04T02:05:21.926Z,27.42
2022-12-04T02:07:52.772Z,32.83
2022-12-04T02:10:24.698Z,28.35
2022-12-04T02:13:28.339Z,24.95
2022-12-04T02:16:15.817Z,29.80
2022-12-04T02:18:57.981Z,33.10
2022-12-04T02:21:38.294Z,32.63
2022-12-04T02:26:44.487Z,23.60
2022-12-04T02:29:32.389Z,26.33
2022-12-04T02:32:11.311Z,28.70
2022-12-04T02:35:01.242Z,29.27
2022-12-04T02:37:37.376Z,27.85
2022-12-04T02:40:15.219Z,25.52
2022-12-04T02:42:51.510Z,24.48
2022-12-04T02:45:26.318Z,26.48
2022-12-04T02:47:55.373Z,29.95
2022-12-04T02:50:24.398Z,26.05
2022-12-04T02:53:12.599Z,21.98
2022-12-04T02:55:45.845Z,25.80
2022-12-04T02:58:21.633Z,24.55
2022-12-04T03:00:50.500Z,25.27
2022-12-04T03:03:24.559Z,26.45
2022-12-04T03:06:00.144Z,30.02
2022-12-04T03:08:32.826Z,28.35
2022-12-04T03:11:01.415Z,27.27
2022-12-04T03:13:42.389Z,26.70
2022-12-04T03:16:09.746Z,26.65
2022-12-04T03:18:41.152Z,25.20
2022-12-04T03:21:19.418Z,23.52
2022-12-04T03:23:54.932Z,26.67
2022-12-04T03:26:32.451Z,27.52
2022-12-04T03:29:07.006Z,26.90
2022-12-04T03:32:18.651Z,30.00
2022-12-04T03:34:45.932Z,26.75
2022-12-04T03:37:19.656Z,26.40
2022-12-04T03:39:57.308Z,25.92
2022-12-04T03:42:42.554Z,26.92
2022-12-04T03:45:24.502Z,32.25
2022-12-04T03:48:01.836Z,28.67
2022-12-04T03:50:56.467Z,25.75
2022-12-04T03:53:35.469Z,27.08
2022-12-04T03:56:25.283Z,27.63
2022-12-04T03:59:00.115Z,27.00
2022-12-04T04:01:38.039Z,29.52
2022-12-04T04:04:07.619Z,24.38
2022-12-04T04:06:42.218Z,25.83
2022-12-04T04:09:21.431Z,28.45
2022-12-04T04:12:08.868Z,24.00
2022-12-04T04:15:01.504Z,28.05
2022-12-04T04:17:52.825Z,33.67
2022-12-04T04:20:44.012Z,23.45
2022-12-04T04:23:30.738Z,23.23
2022-12-04T04:25:59.647Z,25.35
2022-12-04T04:28:38.616Z,23.08
2022-12-04T04:31:24.370Z,29.00
2022-12-04T04:34:10.702Z,28.08
2022-12-04T04:37:01.304Z,27.45
2022-12-04T04:39:51.474Z,29.10
2022-12-04T04:42:25.786Z,25.20
2022-12-04T04:44:53.187Z,24.65
2022-12-04T04:47:41.399Z,26.13
2022-12-04T04:50:10.753Z,28.70
2022-12-04T04:52:41.177Z,24.30
2022-12-04T04:55:09.466Z,24.63
2022-12-04T04:57:37.194Z,26.95
2022-12-04T05:00:24.381Z,23.35
2022-12-04T05:02:51.848Z,26.90
2022-12-04T05:05:19.285Z,27.38
2022-12-04T05:07:46.649Z,27.88
2022-12-04T05:10:14.079Z,27.08
2022-12-04T05:12:41.076Z,27.88
2022-12-04T05:15:08.691Z,27.33
2022-12-04T05:17:36.560Z,27.35
2022-12-04T05:20:05.302Z,24.88
2022-12-04T05:22:34.685Z,25.02
2022-12-04T05:25:02.385Z,27.17
2022-12-04T05:27:31.313Z,26.48
2022-12-04T05:29:59.725Z,26.38
2022-12-04T05:32:28.301Z,27.40
2022-12-04T05:34:56.530Z,25.42
2022-12-04T05:37:24.256Z,24.27
2022-12-04T05:39:51.558Z,29.88
2022-12-04T05:42:18.908Z,25.45
2022-12-04T05:44:46.201Z,26.75
2022-12-04T05:47:13.539Z,24.05
2022-12-04T05:49:40.824Z,27.73
2022-12-04T05:52:08.256Z,26.08
2022-12-04T05:54:35.668Z,28.02
2022-12-04T05:57:03.175Z,26.17
2022-12-04T05:59:30.625Z,24.52
2022-12-04T06:01:58.100Z,25.88
2022-12-04T06:04:25.607Z,28.60
2022-12-04T06:06:54.641Z,28.70
2022-12-04T06:09:22.204Z,28.55
2022-12-04T06:11:49.539Z,29.50
2022-12-04T06:14:16.943Z,24.67
2022-12-04T06:16:46.095Z,28.60
2022-12-04T06:19:16.746Z,22.90
2022-12-04T06:21:46.680Z,26.05
2022-12-04T06:24:16.293Z,24.75
2022-12-04T06:27:04.197Z,27.38
2022-12-04T06:29:31.588Z,25.63
2022-12-04T06:31:59.094Z,25.35
2022-12-04T06:34:26.495Z,28.23
2022-12-04T06:36:53.923Z,29.23
2022-12-04T06:39:21.191Z,31.15
2022-12-04T06:41:48.596Z,26.55
2022-12-04T06:44:16.577Z,29.67
2022-12-04T06:46:47.087Z,27.08
2022-12-04T06:49:25.390Z,25.17
2022-12-04T06:51:52.991Z,28.15
2022-12-04T06:54:20.385Z,28.33
2022-12-04T06:56:49.769Z,25.48
2022-12-04T07:00:09.317Z,24.57
2022-12-04T07:02:37.164Z,26.70
2022-12-04T07:05:04.597Z,25.73
2022-12-04T07:07:32.047Z,26.77
2022-12-04T07:09:59.437Z,26.70
2022-12-04T07:12:26.796Z,25.48
2022-12-04T07:14:54.149Z,26.23
2022-12-04T07:17:21.484Z,28.92
2022-12-04T07:19:48.736Z,27.42
2022-12-04T07:22:16.377Z,27.98
2022-12-04T07:24:43.659Z,29.10
2022-12-04T07:27:10.984Z,26.30
2022-12-04T07:29:38.287Z,27.10
2022-12-04T07:32:05.268Z,29.52
2022-12-04T07:34:32.764Z,26.67
2022-12-04T07:37:00.115Z,26.48
2022-12-04T07:39:28.405Z,27.95
2022-12-04T07:41:55.731Z,23.63
2022-12-04T07:44:24.653Z,33.47
2022-12-04T07:46:52.040Z,22.65
2022-12-04T07:49:19.424Z,24.25
2022-12-04T07:51:46.715Z,26.75
2022-12-04T07:54:14.087Z,30.77
2022-12-04T07:56:41.381Z,26.30
2022-12-04T07:59:08.783Z,27.45
2022-12-04T08:01:36.224Z,28.83
2022-12-04T08:04:04.534Z,31.48
2022-12-04T08:06:34.094Z,25.23
2022-12-04T08:09:06.107Z,25.30
2022-12-04T08:11:36.693Z,29.70
2022-12-04T08:14:06.211Z,31.00
2022-12-04T08:16:33.903Z,27.05
2022-12-04T08:19:01.639Z,28.08
2022-12-04T08:21:30.249Z,27.33
2022-12-04T08:23:58.734Z,25.15
2022-12-04T08:26:27.554Z,26.50
2022-12-04T08:28:55.306Z,30.20
2022-12-04T08:31:25.038Z,25.33
2022-12-04T08:33:54.588Z,21.90
2022-12-04T08:36:22.510Z,28.13
2022-12-04T08:38:51.051Z,29.27
2022-12-04T08:41:20.642Z,28.08
2022-12-04T08:43:48.021Z,25.95
2022-12-04T08:46:17.816Z,24.13
2022-12-04T08:48:45.602Z,25.08
2022-12-04T08:51:18.206Z,26.45
2022-12-04T08:53:45.698Z,25.17
2022-12-04T08:56:13.157Z,23.45
2022-12-04T08:58:40.480Z,24.67
2022-12-04T09:01:10.251Z,25.90
2022-12-04T09:03:39.417Z,23.20
2022-12-04T09:06:09.554Z,26.70
2022-12-04T09:08:37.703Z,26.80
2022-12-04T09:11:08.543Z,26.85
2022-12-04T09:13:36.455Z,25.33
2022-12-04T09:16:06.971Z,27.90
2022-12-04T09:18:35.450Z,23.70
2022-12-04T09:21:07.002Z,26.17
2022-12-04T09:23:35.894Z,24.92
2022-12-04T09:26:04.524Z,22.48
2022-12-04T09:28:32.098Z,25.77
2022-12-04T09:31:05.031Z,22.80
2022-12-04T09:33:32.934Z,25.88
2022-12-04T09:36:00.701Z,23.92
2022-12-04T09:38:29.177Z,23.17
2022-12-04T09:41:12.666Z,26.42
2022-12-04T09:43:54.330Z,18.67
2022-12-04T09:46:32.924Z,23.83
2022-12-04T09:49:05.571Z,20.10
2022-12-04T09:51:33.753Z,22.92
2022-12-04T10:02:07.248Z,24.23
2022-12-04T10:04:38.907Z,20.90
2022-12-04T10:07:29.451Z,21.33
2022-12-04T10:10:10.024Z,20.80
2022-12-04T10:13:04.672Z,22.25
2022-12-04T10:16:02.438Z,24.45
2022-12-04T10:18:41.574Z,27.67
2022-12-04T10:21:49.435Z,21.58
2022-12-04T10:24:42.985Z,22.20
2022-12-04T10:27:25.464Z,23.25
2022-12-04T10:30:15.017Z,22.55
2022-12-04T10:33:27.844Z,19.95
2022-12-04T10:35:55.943Z,21.00
2022-12-04T10:38:45.668Z,22.27
2022-12-04T10:41:20.939Z,23.40
2022-12-04T10:43:49.921Z,22.77
2022-12-04T10:46:23.643Z,22.73
2022-12-04T10:49:01.122Z,21.58
2022-12-04T10:51:35.635Z,23.05
2022-12-04T10:54:02.993Z,22.55
2022-12-04T10:56:29.872Z,22.67
2022-12-04T10:59:05.309Z,22.60
2022-12-04T11:01:35.789Z,26.65
2022-12-04T11:04:20.246Z,22.65
2022-12-04T11:06:50.031Z,22.40
2022-12-04T11:09:24.952Z,21.88
2022-12-04T11:11:52.639Z,22.25
2022-12-04T11:14:22.801Z,24.00
2022-12-04T11:17:04.772Z,23.52
2022-12-04T11:19:33.928Z,25.77
2022-12-04T11:22:11.681Z,26.17
2022-12-04T11:24:40.382Z,24.27
2022-12-04T11:27:16.385Z,26.80
2022-12-04T11:29:45.136Z,23.00
2022-12-04T11:32:33.454Z,25.95
2022-12-04T11:35:11.865Z,26.30
2022-12-04T11:37:43.647Z,25.85
2022-12-04T11:40:19.971Z,25.88
2022-12-04T11:43:06.848Z,22.88
2022-12-04T11:45:34.093Z,26.63
2022-12-04T11:48:12.778Z,26.30
2022-12-04T11:51:00.946Z,26.05
2022-12-04T11:53:46.766Z,25.98
2022-12-04T11:56:16.555Z,27.50
2022-12-04T11:59:18.963Z,24.58
2022-12-04T12:02:23.103Z,26.98
2022-12-04T12:04:50.534Z,24.85
2022-12-04T12:07:59.085Z,28.17
2022-12-04T12:10:29.575Z,25.90
2022-12-04T12:13:31.553Z,24.80
2022-12-04T12:15:58.900Z,28.08
2022-12-04T12:18:50.497Z,25.08
2022-12-04T12:21:35.635Z,27.20
2022-12-04T12:24:13.688Z,30.02
2022-12-04T12:27:05.972Z,25.60
2022-12-04T12:29:44.888Z,30.55
2022-12-04T12:32:42.321Z,26.10
2022-12-04T12:35:33.236Z,23.65
2022-12-04T12:38:05.414Z,23.92
2022-12-04T12:40:41.418Z,27.48
2022-12-04T12:43:22.070Z,28.85
2022-12-04T12:45:56.974Z,26.48
2022-12-04T12:48:36.054Z,27.23
2022-12-04T12:51:29.476Z,23.27
2022-12-04T12:54:15.907Z,27.23
2022-12-04T12:56:49.722Z,28.58
2022-12-04T12:59:26.822Z,25.35
2022-12-04T13:02:37.139Z,28.23
2022-12-04T13:07:51.101Z,36.33
2022-12-04T13:10:44.618Z,33.17
2022-12-04T13:13:18.757Z,26.95
2022-12-04T13:16:01.532Z,27.35
2022-12-04T13:18:32.310Z,26.83
2022-12-04T13:21:03.577Z,29.52
2022-12-04T13:23:51.462Z,27.73
2022-12-04T13:26:18.869Z,25.20
2022-12-04T13:29:00.383Z,28.50
2022-12-04T13:31:27.701Z,27.50
2022-12-04T13:33:55.022Z,23.90
2022-12-04T13:36:23.484Z,26.48
2022-12-04T13:39:05.510Z,26.60
2022-12-04T13:41:38.799Z,23.60
2022-12-04T13:44:33.024Z,29.85
2022-12-04T13:47:06.576Z,26.35
2022-12-04T13:49:42.152Z,28.08
2022-12-04T13:52:40.120Z,24.95
2022-12-04T13:55:42.473Z,30.33
2022-12-04T13:58:12.156Z,28.90
2022-12-04T14:00:42.622Z,26.48
2022-12-04T14:03:25.807Z,30.35
2022-12-04T14:05:53.199Z,29.83
2022-12-04T14:08:20.512Z,31.92
2022-12-04T14:11:00.964Z,26.90
2022-12-04T14:13:49.482Z,25.63
2022-12-04T14:16:26.969Z,29.70
2022-12-04T14:18:56.803Z,26.52
2022-12-04T14:21:24.425Z,30.15
2022-12-04T14:23:53.020Z,27.98
2022-12-04T14:26:37.323Z,27.58
2022-12-04T14:29:28.310Z,29.55
2022-12-04T14:31:58.105Z,34.58
2022-12-04T14:34:31.922Z,34.67
2022-12-04T14:37:01.813Z,42.25
2022-12-04T14:39:38.017Z,42.75
2022-12-04T14:42:34.366Z,42.13
2022-12-04T14:45:04.796Z,40.72
2022-12-04T14:47:40.167Z,31.42
2022-12-04T14:50:28.128Z,27.65
2022-12-04T14:53:02.490Z,41.00
2022-12-04T14:55:54.956Z,33.05
2022-12-04T14:58:32.516Z,34.67
2022-12-04T15:01:02.053Z,31.85
2022-12-04T15:03:33.567Z,27.77
2022-12-04T15:06:07.270Z,35.25
2022-12-04T15:08:34.961Z,34.50
2022-12-04T15:11:20.841Z,36.13
2022-12-04T15:13:48.159Z,41.15
2022-12-04T15:16:21.686Z,34.20
2022-12-04T15:18:55.764Z,40.70
2022-12-04T15:21:26.531Z,46.80
2022-12-04T15:23:53.905Z,36.85
2022-12-04T15:26:24.220Z,40.20
2022-12-04T15:34:13.885Z,41.22
2022-12-04T15:36:51.912Z,42.75
2022-12-04T15:39:26.022Z,44.25
2022-12-04T15:42:15.751Z,45.58
2022-12-04T15:45:06.422Z,45.63
2022-12-04T15:47:38.805Z,43.92
2022-12-04T15:50:23.060Z,42.67
2022-12-04T15:53:08.030Z,45.88
2022-12-04T15:55:56.997Z,41.72
2022-12-04T15:58:28.637Z,31.27
2022-12-04T16:01:00.824Z,30.33
2022-12-04T16:03:33.023Z,29.35
2022-12-04T16:06:19.902Z,32.17
2022-12-04T16:09:00.370Z,27.15
2022-12-04T16:11:32.360Z,30.73
2022-12-04T16:14:08.475Z,30.05
2022-12-04T16:16:38.291Z,27.17
2022-12-04T16:19:34.098Z,36.53
2022-12-04T16:22:03.754Z,26.63
2022-12-04T16:24:30.726Z,30.17
2022-12-04T16:27:00.231Z,26.75
2022-12-04T16:29:27.565Z,30.23
2022-12-04T16:31:59.663Z,30.65
2022-12-04T16:34:30.341Z,26.25
2022-12-04T16:36:57.842Z,32.20
2022-12-04T16:39:25.163Z,31.13
2022-12-04T16:41:52.110Z,27.33
2022-12-04T16:44:19.516Z,30.95
2022-12-04T16:46:46.923Z,25.30
2022-12-04T16:49:13.989Z,29.88
2022-12-04T16:51:46.095Z,25.58
2022-12-04T16:54:14.051Z,32.78
2022-12-04T16:56:41.800Z,28.42
2022-12-04T16:59:12.175Z,27.73
2022-12-04T17:01:44.096Z,29.35
2022-12-04T17:04:11.589Z,29.80
2022-12-04T17:06:39.404Z,33.80
2022-12-04T17:09:06.724Z,26.58
2022-12-04T17:11:34.104Z,31.50
2022-12-04T17:14:06.881Z,28.60
2022-12-04T17:16:36.311Z,28.80
2022-12-04T17:19:04.478Z,27.20
2022-12-04T17:21:31.955Z,30.50
2022-12-04T17:23:59.228Z,29.25
2022-12-04T17:26:26.802Z,31.05
2022-12-04T17:28:54.186Z,31.70
2022-12-04T17:31:23.365Z,34.55
2022-12-04T17:33:50.877Z,31.00
2022-12-04T17:36:20.481Z,28.15
2022-12-04T17:38:47.813Z,27.90
2022-12-04T17:41:16.066Z,30.60
2022-12-04T17:43:43.721Z,28.60
2022-12-04T17:46:16.654Z,31.48
2022-12-04T17:48:44.028Z,35.15
2022-12-04T17:51:16.857Z,42.08
2022-12-04T17:53:44.436Z,39.33
2022-12-04T17:56:17.549Z,41.33
2022-12-04T17:58:48.017Z,50.15
2022-12-04T18:01:25.481Z,40.47
2022-12-04T18:03:59.987Z,45.83
2022-12-04T18:06:54.192Z,50.15
2022-12-04T18:09:21.602Z,55.03
2022-12-04T18:11:49.148Z,86.28
2022-12-04T18:14:23.459Z,66.25
2022-12-04T18:16:56.220Z,59.72
2022-12-04T18:19:26.310Z,51.42
2022-12-04T18:22:00.162Z,51.40
2022-12-04T18:24:29.520Z,43.72
2022-12-04T18:26:56.924Z,46.97
2022-12-04T18:36:40.207Z,36.58
2022-12-04T18:40:23.101Z,41.25
2022-12-04T18:43:13.720Z,36.28
2022-12-04T18:45:43.857Z,43.13
2022-12-04T18:48:35.476Z,43.90
2022-12-04T18:51:31.681Z,36.05
2022-12-04T18:55:10.396Z,39.25
2022-12-04T18:59:41.105Z,39.42
2022-12-04T19:01:18.986Z,35.83
2022-12-04T19:03:48.564Z,38.53
2022-12-04T19:06:16.401Z,38.00
2022-12-04T19:08:43.847Z,37.15
2022-12-04T19:11:15.980Z,40.33
2022-12-04T19:13:44.827Z,41.38
2022-12-04T19:16:15.935Z,40.60
2022-12-04T19:18:45.319Z,39.97
2022-12-04T19:21:16.741Z,43.22
2022-12-04T19:23:49.832Z,41.65
2022-12-04T19:26:22.309Z,42.30
2022-12-04T19:28:59.884Z,38.28
2022-12-04T19:31:31.824Z,38.47
2022-12-04T19:34:01.966Z,41.75
2022-12-04T19:36:32.026Z,40.78
2022-12-04T19:38:59.553Z,32.85
2022-12-04T19:41:30.278Z,35.28
2022-12-04T19:44:46.917Z,34.78
2022-12-04T19:46:49.172Z,36.13
2022-12-04T19:49:17.094Z,34.58
2022-12-04T19:51:44.728Z,36.88
2022-12-04T19:54:16.667Z,35.58
2022-12-04T19:56:46.540Z,36.63
2022-12-04T19:59:14.023Z,33.35
2022-12-04T20:01:41.930Z,32.42
2022-12-04T20:04:09.693Z,38.13
2022-12-04T20:06:43.087Z,30.73
2022-12-04T20:09:13.972Z,31.90
2022-12-04T20:11:41.915Z,33.85
2022-12-04T20:14:10.186Z,33.45
2022-12-04T20:16:38.928Z,31.50
2022-12-04T20:19:07.834Z,28.55
2022-12-04T20:22:17.924Z,28.48
2022-12-04T20:25:15.243Z,26.27
2022-12-04T20:27:42.977Z,26.15
2022-12-04T20:30:12.910Z,27.42
2022-12-04T20:32:40.360Z,25.20
2022-12-04T20:35:07.969Z,32.22
2022-12-04T20:37:35.959Z,29.40
2022-12-04T20:40:07.575Z,31.52
2022-12-04T20:42:35.146Z,31.00
2022-12-04T20:45:02.896Z,27.27
2022-12-04T20:47:30.447Z,25.60
2022-12-04T20:49:58.014Z,29.85
2022-12-04T20:52:25.474Z,26.63
2022-12-04T20:54:52.799Z,28.13
2022-12-04T20:57:20.087Z,29.35
2022-12-04T20:59:47.404Z,29.30
2022-12-04T21:02:14.763Z,24.10
2022-12-04T21:04:42.267Z,24.25
2022-12-04T21:07:09.670Z,27.02
2022-12-04T21:09:37.083Z,26.55
2022-12-04T21:12:24.447Z,27.10
2022-12-04T21:15:12.849Z,29.90
2022-12-04T21:17:43.186Z,32.55
2022-12-04T21:22:37.883Z,25.27
2022-12-04T21:25:05.197Z,25.10
2022-12-04T21:27:32.582Z,29.52
2022-12-04T21:30:00.231Z,26.70
2022-12-04T21:32:27.741Z,27.33
2022-12-04T21:34:55.185Z,25.25
2022-12-04T21:37:22.545Z,27.33
2022-12-04T21:39:49.996Z,23.40
2022-12-04T21:42:32.889Z,21.55
2022-12-04T21:45:01.571Z,28.80
2022-12-04T21:47:29.268Z,26.80
2022-12-04T21:49:56.855Z,28.48
2022-12-04T21:52:24.503Z,30.10
2022-12-04T21:54:52.639Z,22.90
2022-12-04T21:57:20.301Z,24.55
2022-12-04T21:59:47.668Z,25.73
2022-12-04T22:02:15.470Z,24.88
2022-12-04T22:04:43.267Z,26.50
2022-12-04T22:07:10.966Z,24.83
2022-12-04T22:09:38.529Z,22.77
2022-12-04T22:12:26.481Z,27.77
2022-12-04T22:14:53.602Z,24.30
2022-12-04T22:17:20.911Z,22.77
2022-12-04T22:19:48.189Z,22.92
2022-12-04T22:22:15.487Z,24.55
2022-12-04T22:24:42.850Z,27.60
2022-12-04T22:27:14.909Z,26.55
2022-12-04T22:29:50.394Z,25.75
2022-12-04T22:32:18.184Z,22.65
2022-12-04T22:34:45.573Z,23.73
2022-12-04T22:37:12.886Z,20.33
2022-12-04T22:39:40.173Z,24.70
2022-12-04T22:42:07.594Z,23.38
2022-12-04T22:44:34.874Z,22.77
2022-12-04T22:47:02.276Z,26.67
2022-12-04T22:49:29.600Z,28.02
2022-12-04T22:51:56.956Z,22.80
2022-12-04T22:54:24.212Z,25.52
2022-12-04T22:56:51.555Z,22.17
2022-12-04T22:59:18.856Z,23.33
2022-12-04T23:01:46.192Z,26.27
2022-12-04T23:04:13.505Z,23.58
2022-12-04T23:06:40.804Z,25.20
2022-12-04T23:09:12.275Z,22.00
2022-12-04T23:11:39.731Z,21.38
2022-12-04T23:14:09.136Z,18.88
2022-12-04T23:16:37.937Z,21.13
2022-12-04T23:19:06.872Z,26.80
2022-12-04T23:21:34.414Z,21.70
2022-12-04T23:24:01.703Z,21.45
2022-12-04T23:26:36.973Z,21.00
2022-12-04T23:29:18.054Z,24.40
2022-12-04T23:31:52.231Z,20.52
2022-12-04T23:34:19.591Z,22.33
2022-12-04T23:36:46.893Z,22.13
2022-12-04T23:39:14.286Z,20.98
2022-12-04T23:41:41.569Z,22.58
2022-12-04T23:44:09.040Z,23.40
2022-12-04T23:46:36.457Z,22.25
2022-12-04T23:49:03.837Z,19.05
2022-12-04T23:51:31.198Z,23.08
2022-12-04T23:53:59.272Z,23.05
2022-12-04T23:56:28.110Z,23.98
2022-12-04T23:58:57.379Z,22.98
